sensor_id;sensor_type;location;lat;lon;timestamp;P1;durP1;ratioP1;P2;durP2;ratioP2
53903;SDS011;39812;52.430;16.936;2022-12-15T00:02:20;69.28;;;29.92;;
53903;SDS011;39812;52.430;16.936;2022-12-15T00:05:05;56.50;;;28.25;;
53903;SDS011;39812;52.430;16.936;2022-12-15T00:07:49;66.50;;;27.95;;
53903;SDS011;39812;52.430;16.936;2022-12-15T00:10:33;67.23;;;29.33;;
53903;SDS011;39812;52.430;16.936;2022-12-15T00:13:18;63.40;;;27.02;;
53903;SDS011;39812;52.430;16.936;2022-12-15T00:16:02;62.53;;;28.42;;
53903;SDS011;39812;52.430;16.936;2022-12-15T00:18:46;63.72;;;27.00;;
53903;SDS011;39812;52.430;16.936;2022-12-15T00:21:31;68.43;;;26.97;;
53903;SDS011;39812;52.430;16.936;2022-12-15T00:24:14;69.67;;;33.53;;
53903;SDS011;39812;52.430;16.936;2022-12-15T00:26:59;79.32;;;31.88;;
53903;SDS011;39812;52.430;16.936;2022-12-15T00:29:43;56.27;;;29.70;;
53903;SDS011;39812;52.430;16.936;2022-12-15T00:32:27;79.25;;;32.10;;
53903;SDS011;39812;52.430;16.936;2022-12-15T00:35:11;78.80;;;29.33;;
53903;SDS011;39812;52.430;16.936;2022-12-15T00:37:54;71.23;;;29.43;;
53903;SDS011;39812;52.430;16.936;2022-12-15T00:40:39;61.38;;;27.88;;
53903;SDS011;39812;52.430;16.936;2022-12-15T00:43:04;67.53;;;32.17;;
53903;SDS011;39812;52.430;16.936;2022-12-15T00:45:30;59.40;;;26.73;;
53903;SDS011;39812;52.430;16.936;2022-12-15T00:48:14;62.43;;;27.50;;
53903;SDS011;39812;52.430;16.936;2022-12-15T00:50:41;77.55;;;33.83;;
53903;SDS011;39812;52.430;16.936;2022-12-15T00:53:20;69.40;;;29.33;;
53903;SDS011;39812;52.430;16.936;2022-12-15T00:56:06;69.05;;;29.85;;
53903;SDS011;39812;52.430;16.936;2022-12-15T00:58:50;68.63;;;27.83;;
53903;SDS011;39812;52.430;16.936;2022-12-15T01:01:35;65.47;;;28.10;;
53903;SDS011;39812;52.430;16.936;2022-12-15T01:04:19;67.07;;;30.37;;
53903;SDS011;39812;52.430;16.936;2022-12-15T01:07:03;76.25;;;35.25;;
53903;SDS011;39812;52.430;16.936;2022-12-15T01:09:47;71.95;;;31.95;;
53903;SDS011;39812;52.430;16.936;2022-12-15T01:12:31;59.20;;;30.17;;
53903;SDS011;39812;52.430;16.936;2022-12-15T01:15:15;72.32;;;34.25;;
53903;SDS011;39812;52.430;16.936;2022-12-15T01:18:00;53.70;;;25.33;;
53903;SDS011;39812;52.430;16.936;2022-12-15T01:20:44;59.87;;;28.67;;
53903;SDS011;39812;52.430;16.936;2022-12-15T01:23:09;64.55;;;27.15;;
53903;SDS011;39812;52.430;16.936;2022-12-15T01:25:36;72.40;;;28.80;;
53903;SDS011;39812;52.430;16.936;2022-12-15T01:28:03;61.00;;;27.63;;
53903;SDS011;39812;52.430;16.936;2022-12-15T01:30:29;65.15;;;29.75;;
53903;SDS011;39812;52.430;16.936;2022-12-15T01:32:54;65.50;;;28.60;;
53903;SDS011;39812;52.430;16.936;2022-12-15T01:35:20;61.75;;;29.27;;
53903;SDS011;39812;52.430;16.936;2022-12-15T01:37:46;67.50;;;29.20;;
53903;SDS011;39812;52.430;16.936;2022-12-15T01:40:12;66.70;;;29.55;;
53903;SDS011;39812;52.430;16.936;2022-12-15T01:42:59;57.58;;;26.98;;
53903;SDS011;39812;52.430;16.936;2022-12-15T01:48:02;62.03;;;30.83;;
53903;SDS011;39812;52.430;16.936;2022-12-15T01:50:32;50.60;;;27.30;;
53903;SDS011;39812;52.430;16.936;2022-12-15T01:53:04;60.92;;;28.42;;
53903;SDS011;39812;52.430;16.936;2022-12-15T01:55:30;69.47;;;27.20;;
53903;SDS011;39812;52.430;16.936;2022-12-15T01:58:01;69.18;;;32.58;;
53903;SDS011;39812;52.430;16.936;2022-12-15T02:00:30;64.37;;;31.17;;
53903;SDS011;39812;52.430;16.936;2022-12-15T02:02:56;66.32;;;32.92;;
53903;SDS011;39812;52.430;16.936;2022-12-15T02:05:24;60.47;;;27.00;;
53903;SDS011;39812;52.430;16.936;2022-12-15T02:07:50;79.60;;;32.50;;
53903;SDS011;39812;52.430;16.936;2022-12-15T02:10:16;63.75;;;28.70;;
53903;SDS011;39812;52.430;16.936;2022-12-15T02:21:09;62.85;;;28.75;;
53903;SDS011;39812;52.430;16.936;2022-12-15T02:29:24;56.55;;;28.10;;
53903;SDS011;39812;52.430;16.936;2022-12-15T02:32:09;48.08;;;25.70;;
53903;SDS011;39812;52.430;16.936;2022-12-15T02:35:19;62.42;;;27.27;;
53903;SDS011;39812;52.430;16.936;2022-12-15T02:37:39;47.53;;;24.40;;
53903;SDS011;39812;52.430;16.936;2022-12-15T02:40:06;66.60;;;28.95;;
53903;SDS011;39812;52.430;16.936;2022-12-15T02:42:34;54.95;;;27.02;;
53903;SDS011;39812;52.430;16.936;2022-12-15T02:45:05;69.68;;;30.70;;
53903;SDS011;39812;52.430;16.936;2022-12-15T02:47:38;65.57;;;26.20;;
53903;SDS011;39812;52.430;16.936;2022-12-15T02:53:17;60.92;;;32.70;;
53903;SDS011;39812;52.430;16.936;2022-12-15T02:55:56;59.83;;;27.95;;
53903;SDS011;39812;52.430;16.936;2022-12-15T03:01:35;71.65;;;29.80;;
53903;SDS011;39812;52.430;16.936;2022-12-15T03:04:05;54.40;;;29.70;;
53903;SDS011;39812;52.430;16.936;2022-12-15T03:06:32;62.70;;;29.58;;
53903;SDS011;39812;52.430;16.936;2022-12-15T03:08:58;76.35;;;32.35;;
53903;SDS011;39812;52.430;16.936;2022-12-15T03:11:24;78.38;;;32.65;;
53903;SDS011;39812;52.430;16.936;2022-12-15T03:13:50;73.43;;;34.00;;
53903;SDS011;39812;52.430;16.936;2022-12-15T03:16:17;65.25;;;34.85;;
53903;SDS011;39812;52.430;16.936;2022-12-15T03:18:43;74.78;;;33.25;;
53903;SDS011;39812;52.430;16.936;2022-12-15T03:21:09;62.35;;;35.53;;
53903;SDS011;39812;52.430;16.936;2022-12-15T03:23:34;82.50;;;34.38;;
53903;SDS011;39812;52.430;16.936;2022-12-15T03:26:00;76.93;;;34.55;;
53903;SDS011;39812;52.430;16.936;2022-12-15T03:28:25;64.88;;;31.98;;
53903;SDS011;39812;52.430;16.936;2022-12-15T03:30:51;69.43;;;33.17;;
53903;SDS011;39812;52.430;16.936;2022-12-15T03:33:16;83.03;;;33.92;;
53903;SDS011;39812;52.430;16.936;2022-12-15T03:35:42;75.70;;;35.72;;
53903;SDS011;39812;52.430;16.936;2022-12-15T03:38:08;56.88;;;26.95;;
53903;SDS011;39812;52.430;16.936;2022-12-15T03:40:33;69.47;;;32.95;;
53903;SDS011;39812;52.430;16.936;2022-12-15T03:42:59;63.67;;;30.88;;
53903;SDS011;39812;52.430;16.936;2022-12-15T03:45:25;68.32;;;30.92;;
53903;SDS011;39812;52.430;16.936;2022-12-15T03:47:52;78.13;;;33.08;;
53903;SDS011;39812;52.430;16.936;2022-12-15T03:50:20;59.45;;;30.00;;
53903;SDS011;39812;52.430;16.936;2022-12-15T03:52:54;66.38;;;29.58;;
53903;SDS011;39812;52.430;16.936;2022-12-15T03:55:24;70.65;;;29.90;;
53903;SDS011;39812;52.430;16.936;2022-12-15T03:57:52;66.15;;;29.23;;
53903;SDS011;39812;52.430;16.936;2022-12-15T04:00:18;65.72;;;30.00;;
53903;SDS011;39812;52.430;16.936;2022-12-15T04:02:44;75.38;;;32.00;;
53903;SDS011;39812;52.430;16.936;2022-12-15T04:05:14;69.40;;;28.42;;
53903;SDS011;39812;52.430;16.936;2022-12-15T04:07:43;67.13;;;31.08;;
53903;SDS011;39812;52.430;16.936;2022-12-15T04:10:09;74.05;;;28.70;;
53903;SDS011;39812;52.430;16.936;2022-12-15T04:12:36;57.15;;;31.40;;
53903;SDS011;39812;52.430;16.936;2022-12-15T04:15:05;68.60;;;32.20;;
53903;SDS011;39812;52.430;16.936;2022-12-15T04:17:32;57.35;;;30.88;;
53903;SDS011;39812;52.430;16.936;2022-12-15T04:19:58;69.07;;;28.92;;
53903;SDS011;39812;52.430;16.936;2022-12-15T04:22:36;69.07;;;31.75;;
53903;SDS011;39812;52.430;16.936;2022-12-15T04:25:03;60.75;;;27.08;;
53903;SDS011;39812;52.430;16.936;2022-12-15T04:27:48;63.45;;;25.50;;
53903;SDS011;39812;52.430;16.936;2022-12-15T04:30:32;57.42;;;26.65;;
53903;SDS011;39812;52.430;16.936;2022-12-15T04:33:17;62.65;;;27.30;;
53903;SDS011;39812;52.430;16.936;2022-12-15T04:36:02;63.00;;;30.38;;
53903;SDS011;39812;52.430;16.936;2022-12-15T04:41:31;42.30;;;20.58;;
53903;SDS011;39812;52.430;16.936;2022-12-15T04:44:15;43.38;;;23.17;;
53903;SDS011;39812;52.430;16.936;2022-12-15T04:47:00;50.63;;;22.90;;
53903;SDS011;39812;52.430;16.936;2022-12-15T04:49:44;58.43;;;30.97;;
53903;SDS011;39812;52.430;16.936;2022-12-15T04:52:28;64.78;;;30.23;;
53903;SDS011;39812;52.430;16.936;2022-12-15T04:55:12;82.83;;;35.97;;
53903;SDS011;39812;52.430;16.936;2022-12-15T04:57:56;72.97;;;32.78;;
53903;SDS011;39812;52.430;16.936;2022-12-15T05:00:40;83.77;;;30.20;;
53903;SDS011;39812;52.430;16.936;2022-12-15T05:03:25;78.93;;;35.53;;
53903;SDS011;39812;52.430;16.936;2022-12-15T05:06:09;92.53;;;42.73;;
53903;SDS011;39812;52.430;16.936;2022-12-15T05:08:53;78.80;;;40.88;;
53903;SDS011;39812;52.430;16.936;2022-12-15T05:11:37;96.68;;;38.67;;
53903;SDS011;39812;52.430;16.936;2022-12-15T05:14:21;74.88;;;38.83;;
53903;SDS011;39812;52.430;16.936;2022-12-15T05:17:05;81.43;;;37.63;;
53903;SDS011;39812;52.430;16.936;2022-12-15T05:19:49;67.00;;;36.58;;
53903;SDS011;39812;52.430;16.936;2022-12-15T05:22:33;64.43;;;34.55;;
53903;SDS011;39812;52.430;16.936;2022-12-15T05:25:17;83.00;;;35.88;;
53903;SDS011;39812;52.430;16.936;2022-12-15T05:28:04;78.82;;;34.83;;
53903;SDS011;39812;52.430;16.936;2022-12-15T05:30:49;94.82;;;40.03;;
53903;SDS011;39812;52.430;16.936;2022-12-15T05:33:33;83.07;;;38.05;;
53903;SDS011;39812;52.430;16.936;2022-12-15T05:35:59;102.30;;;37.22;;
53903;SDS011;39812;52.430;16.936;2022-12-15T05:38:24;80.03;;;35.95;;
53903;SDS011;39812;52.430;16.936;2022-12-15T05:40:50;86.63;;;38.70;;
53903;SDS011;39812;52.430;16.936;2022-12-15T05:43:16;91.28;;;38.70;;
53903;SDS011;39812;52.430;16.936;2022-12-15T05:45:41;88.70;;;33.47;;
53903;SDS011;39812;52.430;16.936;2022-12-15T05:48:07;89.00;;;36.30;;
53903;SDS011;39812;52.430;16.936;2022-12-15T05:50:32;84.40;;;35.83;;
53903;SDS011;39812;52.430;16.936;2022-12-15T05:52:58;88.50;;;40.05;;
53903;SDS011;39812;52.430;16.936;2022-12-15T05:55:24;87.88;;;37.33;;
53903;SDS011;39812;52.430;16.936;2022-12-15T05:57:51;81.75;;;39.20;;
53903;SDS011;39812;52.430;16.936;2022-12-15T06:00:17;78.13;;;36.13;;
53903;SDS011;39812;52.430;16.936;2022-12-15T06:02:43;83.32;;;39.33;;
53903;SDS011;39812;52.430;16.936;2022-12-15T06:05:08;87.13;;;35.38;;
53903;SDS011;39812;52.430;16.936;2022-12-15T06:07:34;84.38;;;38.20;;
53903;SDS011;39812;52.430;16.936;2022-12-15T06:10:01;81.25;;;38.50;;
53903;SDS011;39812;52.430;16.936;2022-12-15T06:12:27;74.95;;;39.10;;
53903;SDS011;39812;52.430;16.936;2022-12-15T06:14:53;106.38;;;41.20;;
53903;SDS011;39812;52.430;16.936;2022-12-15T06:17:18;78.95;;;30.35;;
53903;SDS011;39812;52.430;16.936;2022-12-15T06:19:44;62.42;;;33.60;;
53903;SDS011;39812;52.430;16.936;2022-12-15T06:22:09;96.97;;;40.95;;
53903;SDS011;39812;52.430;16.936;2022-12-15T06:24:35;93.63;;;42.92;;
53903;SDS011;39812;52.430;16.936;2022-12-15T06:27:01;98.97;;;42.80;;
53903;SDS011;39812;52.430;16.936;2022-12-15T06:29:26;105.03;;;43.75;;
53903;SDS011;39812;52.430;16.936;2022-12-15T06:31:52;78.85;;;35.40;;
53903;SDS011;39812;52.430;16.936;2022-12-15T06:34:17;86.78;;;37.22;;
53903;SDS011;39812;52.430;16.936;2022-12-15T06:36:43;85.47;;;39.67;;
53903;SDS011;39812;52.430;16.936;2022-12-15T06:39:10;95.20;;;39.10;;
53903;SDS011;39812;52.430;16.936;2022-12-15T06:41:37;81.97;;;36.83;;
53903;SDS011;39812;52.430;16.936;2022-12-15T06:44:04;92.65;;;37.40;;
53903;SDS011;39812;52.430;16.936;2022-12-15T06:46:30;103.55;;;41.55;;
53903;SDS011;39812;52.430;16.936;2022-12-15T06:48:57;110.45;;;46.50;;
53903;SDS011;39812;52.430;16.936;2022-12-15T06:51:23;76.18;;;38.65;;
53903;SDS011;39812;52.430;16.936;2022-12-15T06:53:49;68.45;;;36.30;;
53903;SDS011;39812;52.430;16.936;2022-12-15T06:56:29;67.20;;;35.70;;
53903;SDS011;39812;52.430;16.936;2022-12-15T06:58:56;97.38;;;46.10;;
53903;SDS011;39812;52.430;16.936;2022-12-15T07:01:23;122.22;;;49.45;;
53903;SDS011;39812;52.430;16.936;2022-12-15T07:03:50;90.10;;;39.75;;
53903;SDS011;39812;52.430;16.936;2022-12-15T07:06:16;102.00;;;43.75;;
53903;SDS011;39812;52.430;16.936;2022-12-15T07:08:43;87.93;;;33.03;;
53903;SDS011;39812;52.430;16.936;2022-12-15T07:11:12;89.25;;;44.42;;
53903;SDS011;39812;52.430;16.936;2022-12-15T07:13:38;118.22;;;47.78;;
53903;SDS011;39812;52.430;16.936;2022-12-15T07:16:04;85.50;;;40.10;;
53903;SDS011;39812;52.430;16.936;2022-12-15T07:18:31;70.78;;;37.13;;
53903;SDS011;39812;52.430;16.936;2022-12-15T07:21:04;91.95;;;44.28;;
53903;SDS011;39812;52.430;16.936;2022-12-15T07:23:31;96.10;;;45.47;;
53903;SDS011;39812;52.430;16.936;2022-12-15T07:25:57;90.88;;;41.78;;
53903;SDS011;39812;52.430;16.936;2022-12-15T07:28:26;103.47;;;41.92;;
53903;SDS011;39812;52.430;16.936;2022-12-15T07:30:51;113.93;;;43.03;;
53903;SDS011;39812;52.430;16.936;2022-12-15T07:33:17;107.22;;;49.75;;
53903;SDS011;39812;52.430;16.936;2022-12-15T07:35:42;125.30;;;48.17;;
53903;SDS011;39812;52.430;16.936;2022-12-15T07:38:17;108.40;;;40.85;;
53903;SDS011;39812;52.430;16.936;2022-12-15T07:40:42;57.25;;;31.27;;
53903;SDS011;39812;52.430;16.936;2022-12-15T07:43:08;88.95;;;43.20;;
53903;SDS011;39812;52.430;16.936;2022-12-15T07:45:33;113.13;;;51.55;;
53903;SDS011;39812;52.430;16.936;2022-12-15T07:47:59;115.90;;;48.25;;
53903;SDS011;39812;52.430;16.936;2022-12-15T07:50:24;95.07;;;45.90;;
53903;SDS011;39812;52.430;16.936;2022-12-15T07:52:50;98.38;;;42.10;;
53903;SDS011;39812;52.430;16.936;2022-12-15T07:55:15;102.30;;;42.67;;
53903;SDS011;39812;52.430;16.936;2022-12-15T07:57:41;109.57;;;47.40;;
53903;SDS011;39812;52.430;16.936;2022-12-15T08:00:07;81.70;;;36.47;;
53903;SDS011;39812;52.430;16.936;2022-12-15T08:02:34;110.78;;;41.33;;
53903;SDS011;39812;52.430;16.936;2022-12-15T08:05:00;91.22;;;41.03;;
53903;SDS011;39812;52.430;16.936;2022-12-15T08:07:25;87.65;;;41.65;;
53903;SDS011;39812;52.430;16.936;2022-12-15T08:09:51;82.35;;;36.67;;
53903;SDS011;39812;52.430;16.936;2022-12-15T08:12:17;118.45;;;49.00;;
53903;SDS011;39812;52.430;16.936;2022-12-15T08:14:43;103.63;;;42.20;;
53903;SDS011;39812;52.430;16.936;2022-12-15T08:17:10;125.82;;;49.97;;
53903;SDS011;39812;52.430;16.936;2022-12-15T08:19:37;101.03;;;47.03;;
53903;SDS011;39812;52.430;16.936;2022-12-15T08:22:02;92.30;;;46.42;;
53903;SDS011;39812;52.430;16.936;2022-12-15T08:24:28;89.30;;;37.67;;
53903;SDS011;39812;52.430;16.936;2022-12-15T08:26:53;105.10;;;45.80;;
53903;SDS011;39812;52.430;16.936;2022-12-15T08:29:19;103.93;;;43.67;;
53903;SDS011;39812;52.430;16.936;2022-12-15T08:31:45;93.93;;;41.55;;
53903;SDS011;39812;52.430;16.936;2022-12-15T08:34:10;78.78;;;41.83;;
53903;SDS011;39812;52.430;16.936;2022-12-15T08:36:36;92.57;;;40.30;;
53903;SDS011;39812;52.430;16.936;2022-12-15T08:39:02;100.47;;;45.13;;
53903;SDS011;39812;52.430;16.936;2022-12-15T08:41:28;83.47;;;39.70;;
53903;SDS011;39812;52.430;16.936;2022-12-15T08:43:56;104.47;;;43.08;;
53903;SDS011;39812;52.430;16.936;2022-12-15T08:46:24;107.30;;;46.97;;
53903;SDS011;39812;52.430;16.936;2022-12-15T08:48:51;93.20;;;37.90;;
53903;SDS011;39812;52.430;16.936;2022-12-15T08:51:17;94.88;;;42.17;;
53903;SDS011;39812;52.430;16.936;2022-12-15T08:53:44;111.93;;;48.85;;
53903;SDS011;39812;52.430;16.936;2022-12-15T08:56:11;109.13;;;44.53;;
53903;SDS011;39812;52.430;16.936;2022-12-15T08:58:39;97.93;;;42.70;;
53903;SDS011;39812;52.430;16.936;2022-12-15T09:01:10;99.72;;;42.45;;
53903;SDS011;39812;52.430;16.936;2022-12-15T09:03:38;108.93;;;48.25;;
53903;SDS011;39812;52.430;16.936;2022-12-15T09:06:05;96.90;;;44.10;;
53903;SDS011;39812;52.430;16.936;2022-12-15T09:08:33;100.78;;;41.30;;
53903;SDS011;39812;52.430;16.936;2022-12-15T09:10:59;102.38;;;43.50;;
53903;SDS011;39812;52.430;16.936;2022-12-15T09:13:26;104.13;;;42.33;;
53903;SDS011;39812;52.430;16.936;2022-12-15T09:15:59;106.55;;;44.25;;
53903;SDS011;39812;52.430;16.936;2022-12-15T09:18:29;90.75;;;43.15;;
53903;SDS011;39812;52.430;16.936;2022-12-15T09:20:59;97.65;;;43.13;;
53903;SDS011;39812;52.430;16.936;2022-12-15T09:23:26;107.00;;;45.33;;
53903;SDS011;39812;52.430;16.936;2022-12-15T09:25:57;95.38;;;41.97;;
53903;SDS011;39812;52.430;16.936;2022-12-15T09:28:27;98.05;;;38.33;;
53903;SDS011;39812;52.430;16.936;2022-12-15T09:30:53;115.22;;;45.90;;
53903;SDS011;39812;52.430;16.936;2022-12-15T09:33:25;94.88;;;41.38;;
53903;SDS011;39812;52.430;16.936;2022-12-15T09:35:51;112.88;;;42.38;;
53903;SDS011;39812;52.430;16.936;2022-12-15T09:38:18;101.50;;;44.35;;
53903;SDS011;39812;52.430;16.936;2022-12-15T09:40:43;104.95;;;44.50;;
53903;SDS011;39812;52.430;16.936;2022-12-15T09:43:10;104.35;;;42.63;;
53903;SDS011;39812;52.430;16.936;2022-12-15T09:45:43;98.38;;;42.90;;
53903;SDS011;39812;52.430;16.936;2022-12-15T09:48:18;102.63;;;38.15;;
53903;SDS011;39812;52.430;16.936;2022-12-15T09:50:46;90.18;;;38.17;;
53903;SDS011;39812;52.430;16.936;2022-12-15T09:53:15;103.13;;;42.17;;
53903;SDS011;39812;52.430;16.936;2022-12-15T09:55:44;91.93;;;37.08;;
53903;SDS011;39812;52.430;16.936;2022-12-15T10:04:56;84.63;;;37.22;;
53903;SDS011;39812;52.430;16.936;2022-12-15T10:07:05;98.07;;;40.20;;
53903;SDS011;39812;52.430;16.936;2022-12-15T10:09:38;108.13;;;38.63;;
53903;SDS011;39812;52.430;16.936;2022-12-15T10:22:09;86.53;;;33.92;;
53903;SDS011;39812;52.430;16.936;2022-12-15T10:24:45;81.43;;;36.38;;
53903;SDS011;39812;52.430;16.936;2022-12-15T10:30:00;91.70;;;36.97;;
53903;SDS011;39812;52.430;16.936;2022-12-15T10:32:52;87.43;;;36.05;;
53903;SDS011;39812;52.430;16.936;2022-12-15T10:35:21;83.25;;;37.22;;
53903;SDS011;39812;52.430;16.936;2022-12-15T10:37:49;80.72;;;34.50;;
53903;SDS011;39812;52.430;16.936;2022-12-15T10:40:21;90.78;;;36.50;;
53903;SDS011;39812;52.430;16.936;2022-12-15T10:43:13;92.20;;;36.03;;
53903;SDS011;39812;52.430;16.936;2022-12-15T10:45:47;86.75;;;34.08;;
53903;SDS011;39812;52.430;16.936;2022-12-15T10:48:18;83.90;;;33.40;;
53903;SDS011;39812;52.430;16.936;2022-12-15T10:50:44;81.60;;;34.03;;
53903;SDS011;39812;52.430;16.936;2022-12-15T10:53:30;82.95;;;33.65;;
53903;SDS011;39812;52.430;16.936;2022-12-15T10:56:07;83.45;;;35.63;;
53903;SDS011;39812;52.430;16.936;2022-12-15T10:58:49;84.93;;;34.90;;
53903;SDS011;39812;52.430;16.936;2022-12-15T11:01:24;69.43;;;29.58;;
53903;SDS011;39812;52.430;16.936;2022-12-15T11:03:54;76.57;;;32.55;;
53903;SDS011;39812;52.430;16.936;2022-12-15T11:06:54;71.75;;;30.40;;
53903;SDS011;39812;52.430;16.936;2022-12-15T11:09:25;83.25;;;34.63;;
53903;SDS011;39812;52.430;16.936;2022-12-15T11:11:57;83.93;;;33.28;;
53903;SDS011;39812;52.430;16.936;2022-12-15T11:14:46;79.40;;;31.60;;
53903;SDS011;39812;52.430;16.936;2022-12-15T11:17:19;69.55;;;30.52;;
53903;SDS011;39812;52.430;16.936;2022-12-15T11:22:28;42.92;;;19.20;;
53903;SDS011;39812;52.430;16.936;2022-12-15T11:28:10;47.60;;;22.02;;
53903;SDS011;39812;52.430;16.936;2022-12-15T11:30:41;61.40;;;26.60;;
53903;SDS011;39812;52.430;16.936;2022-12-15T11:33:14;56.33;;;26.77;;
53903;SDS011;39812;52.430;16.936;2022-12-15T11:38:28;53.92;;;24.20;;
53903;SDS011;39812;52.430;16.936;2022-12-15T11:41:06;48.20;;;23.88;;
53903;SDS011;39812;52.430;16.936;2022-12-15T11:43:50;62.03;;;26.33;;
53903;SDS011;39812;52.430;16.936;2022-12-15T11:46:48;57.20;;;25.30;;
53903;SDS011;39812;52.430;16.936;2022-12-15T12:03:36;65.38;;;25.60;;
53903;SDS011;39812;52.430;16.936;2022-12-15T12:06:12;60.38;;;28.25;;
53903;SDS011;39812;52.430;16.936;2022-12-15T12:09:13;57.05;;;27.65;;
53903;SDS011;39812;52.430;16.936;2022-12-15T12:17:20;59.97;;;28.27;;
53903;SDS011;39812;52.430;16.936;2022-12-15T12:19:56;70.43;;;27.33;;
53903;SDS011;39812;52.430;16.936;2022-12-15T12:22:35;63.83;;;29.63;;
53903;SDS011;39812;52.430;16.936;2022-12-15T12:25:16;71.05;;;28.70;;
53903;SDS011;39812;52.430;16.936;2022-12-15T12:27:57;56.78;;;25.77;;
53903;SDS011;39812;52.430;16.936;2022-12-15T12:30:28;59.40;;;26.80;;
53903;SDS011;39812;52.430;16.936;2022-12-15T12:33:03;61.75;;;27.10;;
53903;SDS011;39812;52.430;16.936;2022-12-15T12:35:51;57.78;;;24.13;;
53903;SDS011;39812;52.430;16.936;2022-12-15T12:38:24;51.95;;;25.25;;
53903;SDS011;39812;52.430;16.936;2022-12-15T12:43:30;40.70;;;18.75;;
53903;SDS011;39812;52.430;16.936;2022-12-15T12:45:58;52.03;;;25.00;;
53903;SDS011;39812;52.430;16.936;2022-12-15T12:53:36;38.58;;;17.85;;
53903;SDS011;39812;52.430;16.936;2022-12-15T12:56:02;48.22;;;19.95;;
53903;SDS011;39812;52.430;16.936;2022-12-15T13:03:38;47.67;;;23.40;;
53903;SDS011;39812;52.430;16.936;2022-12-15T13:07:26;64.07;;;26.48;;
53903;SDS011;39812;52.430;16.936;2022-12-15T13:09:19;47.70;;;21.35;;
53903;SDS011;39812;52.430;16.936;2022-12-15T13:14:26;47.88;;;22.85;;
53903;SDS011;39812;52.430;16.936;2022-12-15T13:16:55;59.40;;;26.33;;
53903;SDS011;39812;52.430;16.936;2022-12-15T13:22:22;59.58;;;27.05;;
53903;SDS011;39812;52.430;16.936;2022-12-15T13:24:51;55.03;;;25.90;;
53903;SDS011;39812;52.430;16.936;2022-12-15T13:27:17;54.15;;;22.30;;
53903;SDS011;39812;52.430;16.936;2022-12-15T13:29:57;49.03;;;22.67;;
53903;SDS011;39812;52.430;16.936;2022-12-15T13:35:00;49.40;;;20.85;;
53903;SDS011;39812;52.430;16.936;2022-12-15T13:37:44;63.47;;;25.60;;
53903;SDS011;39812;52.430;16.936;2022-12-15T13:42:57;52.60;;;19.17;;
53903;SDS011;39812;52.430;16.936;2022-12-15T13:45:31;58.35;;;24.25;;
53903;SDS011;39812;52.430;16.936;2022-12-15T13:48:04;51.63;;;24.23;;
53903;SDS011;39812;52.430;16.936;2022-12-15T13:53:43;55.63;;;26.00;;
53903;SDS011;39812;52.430;16.936;2022-12-15T13:56:23;51.72;;;22.77;;
53903;SDS011;39812;52.430;16.936;2022-12-15T13:59:01;49.10;;;23.15;;
53903;SDS011;39812;52.430;16.936;2022-12-15T14:01:30;46.15;;;20.40;;
53903;SDS011;39812;52.430;16.936;2022-12-15T14:06:32;48.53;;;21.30;;
53903;SDS011;39812;52.430;16.936;2022-12-15T14:09:00;43.72;;;19.27;;
53903;SDS011;39812;52.430;16.936;2022-12-15T14:11:27;49.97;;;24.13;;
53903;SDS011;39812;52.430;16.936;2022-12-15T14:13:59;52.00;;;21.95;;
53903;SDS011;39812;52.430;16.936;2022-12-15T14:16:26;48.33;;;20.20;;
53903;SDS011;39812;52.430;16.936;2022-12-15T14:19:28;53.40;;;22.80;;
53903;SDS011;39812;52.430;16.936;2022-12-15T14:21:54;49.25;;;22.00;;
53903;SDS011;39812;52.430;16.936;2022-12-15T14:24:28;41.58;;;20.98;;
53903;SDS011;39812;52.430;16.936;2022-12-15T14:26:56;42.92;;;19.13;;
53903;SDS011;39812;52.430;16.936;2022-12-15T14:29:22;46.72;;;20.73;;
53903;SDS011;39812;52.430;16.936;2022-12-15T14:31:55;48.60;;;21.73;;
53903;SDS011;39812;52.430;16.936;2022-12-15T14:34:37;50.20;;;20.70;;
53903;SDS011;39812;52.430;16.936;2022-12-15T14:37:06;59.53;;;24.23;;
53903;SDS011;39812;52.430;16.936;2022-12-15T14:39:39;56.03;;;25.10;;
53903;SDS011;39812;52.430;16.936;2022-12-15T14:42:11;42.30;;;21.05;;
53903;SDS011;39812;52.430;16.936;2022-12-15T14:44:43;48.17;;;20.60;;
53903;SDS011;39812;52.430;16.936;2022-12-15T14:47:24;52.78;;;23.50;;
53903;SDS011;39812;52.430;16.936;2022-12-15T14:49:52;46.40;;;22.13;;
53903;SDS011;39812;52.430;16.936;2022-12-15T14:52:25;45.08;;;20.90;;
53903;SDS011;39812;52.430;16.936;2022-12-15T14:54:59;42.25;;;19.85;;
53903;SDS011;39812;52.430;16.936;2022-12-15T14:57:48;44.90;;;19.55;;
53903;SDS011;39812;52.430;16.936;2022-12-15T15:05:45;37.65;;;17.00;;
53903;SDS011;39812;52.430;16.936;2022-12-15T15:08:35;50.53;;;21.17;;
53903;SDS011;39812;52.430;16.936;2022-12-15T15:13:47;41.97;;;20.73;;
53903;SDS011;39812;52.430;16.936;2022-12-15T15:16:17;55.35;;;20.50;;
53903;SDS011;39812;52.430;16.936;2022-12-15T15:18:47;45.17;;;21.38;;
53903;SDS011;39812;52.430;16.936;2022-12-15T15:21:16;43.22;;;18.27;;
53903;SDS011;39812;52.430;16.936;2022-12-15T15:23:58;47.83;;;22.50;;
53903;SDS011;39812;52.430;16.936;2022-12-15T15:26:26;39.50;;;18.02;;
53903;SDS011;39812;52.430;16.936;2022-12-15T15:28:53;49.60;;;22.98;;
53903;SDS011;39812;52.430;16.936;2022-12-15T15:31:35;47.15;;;22.60;;
53903;SDS011;39812;52.430;16.936;2022-12-15T15:34:02;54.00;;;23.17;;
53903;SDS011;39812;52.430;16.936;2022-12-15T15:36:32;51.92;;;23.33;;
53903;SDS011;39812;52.430;16.936;2022-12-15T15:39:00;57.53;;;22.88;;
53903;SDS011;39812;52.430;16.936;2022-12-15T15:41:28;53.65;;;24.55;;
53903;SDS011;39812;52.430;16.936;2022-12-15T15:43:58;48.35;;;22.20;;
53903;SDS011;39812;52.430;16.936;2022-12-15T15:46:29;50.15;;;21.98;;
53903;SDS011;39812;52.430;16.936;2022-12-15T15:49:00;49.53;;;21.63;;
53903;SDS011;39812;52.430;16.936;2022-12-15T15:51:30;48.05;;;21.08;;
53903;SDS011;39812;52.430;16.936;2022-12-15T15:53:58;45.58;;;22.00;;
53903;SDS011;39812;52.430;16.936;2022-12-15T15:56:26;52.10;;;21.13;;
53903;SDS011;39812;52.430;16.936;2022-12-15T15:58:54;56.63;;;23.23;;
53903;SDS011;39812;52.430;16.936;2022-12-15T16:01:21;62.50;;;24.10;;
53903;SDS011;39812;52.430;16.936;2022-12-15T16:03:47;41.63;;;18.92;;
53903;SDS011;39812;52.430;16.936;2022-12-15T16:06:16;49.80;;;22.33;;
53903;SDS011;39812;52.430;16.936;2022-12-15T16:08:43;46.30;;;19.17;;
53903;SDS011;39812;52.430;16.936;2022-12-15T16:11:11;58.10;;;21.58;;
53903;SDS011;39812;52.430;16.936;2022-12-15T16:13:37;51.75;;;20.52;;
53903;SDS011;39812;52.430;16.936;2022-12-15T16:16:03;43.00;;;18.58;;
53903;SDS011;39812;52.430;16.936;2022-12-15T16:18:29;46.75;;;23.27;;
53903;SDS011;39812;52.430;16.936;2022-12-15T16:20:56;47.63;;;21.33;;
53903;SDS011;39812;52.430;16.936;2022-12-15T16:23:24;48.45;;;21.23;;
53903;SDS011;39812;52.430;16.936;2022-12-15T16:28:20;44.60;;;19.65;;
53903;SDS011;39812;52.430;16.936;2022-12-15T16:30:47;39.63;;;16.10;;